sensor_id;sensor_type;location;lat;lon;timestamp;temperature;humidity
17381;DHT22;8808;52.478;13.378;2023-02-28T00:02:23;3.10;99.90
17381;DHT22;8808;52.478;13.378;2023-02-28T00:04:49;3.10;99.90
17381;DHT22;8808;52.478;13.378;2023-02-28T00:07:18;3.10;99.90
17381;DHT22;8808;52.478;13.378;2023-02-28T00:09:45;3.10;99.90
17381;DHT22;8808;52.478;13.378;2023-02-28T00:12:13;3.00;99.90
17381;DHT22;8808;52.478;13.378;2023-02-28T00:14:40;3.00;99.90
17381;DHT22;8808;52.478;13.378;2023-02-28T00:17:07;3.00;99.90
17381;DHT22;8808;52.478;13.378;2023-02-28T00:19:34;3.00;99.90
17381;DHT22;8808;52.478;13.378;2023-02-28T00:22:01;3.10;99.90
17381;DHT22;8808;52.478;13.378;2023-02-28T00:24:28;3.10;99.90
17381;DHT22;8808;52.478;13.378;2023-02-28T00:26:55;3.00;99.90
17381;DHT22;8808;52.478;13.378;2023-02-28T00:29:23;3.00;99.90
17381;DHT22;8808;52.478;13.378;2023-02-28T00:31:50;2.90;99.90
17381;DHT22;8808;52.478;13.378;2023-02-28T00:34:17;2.90;99.90
17381;DHT22;8808;52.478;13.378;2023-02-28T00:36:44;2.90;99.90
17381;DHT22;8808;52.478;13.378;2023-02-28T00:39:15;3.00;99.90
17381;DHT22;8808;52.478;13.378;2023-02-28T00:41:42;2.90;99.90
17381;DHT22;8808;52.478;13.378;2023-02-28T00:44:09;3.00;99.90
17381;DHT22;8808;52.478;13.378;2023-02-28T00:46:38;2.80;99.90
17381;DHT22;8808;52.478;13.378;2023-02-28T00:49:05;2.70;99.90
17381;DHT22;8808;52.478;13.378;2023-02-28T00:51:31;2.80;99.90
17381;DHT22;8808;52.478;13.378;2023-02-28T00:53:59;2.80;99.90
17381;DHT22;8808;52.478;13.378;2023-02-28T00:56:25;2.80;99.90
17381;DHT22;8808;52.478;13.378;2023-02-28T00:58:52;2.90;99.90
17381;DHT22;8808;52.478;13.378;2023-02-28T01:01:19;2.80;99.90
17381;DHT22;8808;52.478;13.378;2023-02-28T01:03:48;2.80;99.90
17381;DHT22;8808;52.478;13.378;2023-02-28T01:06:14;2.80;99.90
17381;DHT22;8808;52.478;13.378;2023-02-28T01:08:42;2.70;99.90
17381;DHT22;8808;52.478;13.378;2023-02-28T01:11:10;2.70;99.90
17381;DHT22;8808;52.478;13.378;2023-02-28T01:13:38;2.70;99.90
17381;DHT22;8808;52.478;13.378;2023-02-28T01:16:06;2.70;99.90
17381;DHT22;8808;52.478;13.378;2023-02-28T01:18:33;2.60;99.90
17381;DHT22;8808;52.478;13.378;2023-02-28T01:21:05;2.60;99.90
17381;DHT22;8808;52.478;13.378;2023-02-28T01:23:32;2.50;99.90
17381;DHT22;8808;52.478;13.378;2023-02-28T01:26:04;2.40;99.90
17381;DHT22;8808;52.478;13.378;2023-02-28T01:28:31;2.30;99.90
17381;DHT22;8808;52.478;13.378;2023-02-28T01:30:58;2.40;99.90
17381;DHT22;8808;52.478;13.378;2023-02-28T01:33:25;2.40;99.90
17381;DHT22;8808;52.478;13.378;2023-02-28T01:35:58;2.50;99.90
17381;DHT22;8808;52.478;13.378;2023-02-28T01:38:27;2.40;99.90
17381;DHT22;8808;52.478;13.378;2023-02-28T01:40:54;2.40;99.90
17381;DHT22;8808;52.478;13.378;2023-02-28T01:43:22;2.20;99.90
17381;DHT22;8808;52.478;13.378;2023-02-28T01:45:50;2.10;99.90
17381;DHT22;8808;52.478;13.378;2023-02-28T01:48:18;2.20;99.90
17381;DHT22;8808;52.478;13.378;2023-02-28T01:50:46;2.00;99.90
17381;DHT22;8808;52.478;13.378;2023-02-28T01:53:16;2.00;99.90
17381;DHT22;8808;52.478;13.378;2023-02-28T01:55:48;1.90;99.90
17381;DHT22;8808;52.478;13.378;2023-02-28T01:58:17;1.80;99.90
17381;DHT22;8808;52.478;13.378;2023-02-28T02:03:20;1.70;99.90
17381;DHT22;8808;52.478;13.378;2023-02-28T02:05:47;1.70;99.90
17381;DHT22;8808;52.478;13.378;2023-02-28T02:08:17;1.90;99.90
17381;DHT22;8808;52.478;13.378;2023-02-28T02:10:49;1.70;99.90
17381;DHT22;8808;52.478;13.378;2023-02-28T02:13:30;1.70;99.90
17381;DHT22;8808;52.478;13.378;2023-02-28T02:16:04;1.50;99.90
17381;DHT22;8808;52.478;13.378;2023-02-28T02:18:38;1.30;99.90
17381;DHT22;8808;52.478;13.378;2023-02-28T02:21:49;1.30;99.90
17381;DHT22;8808;52.478;13.378;2023-02-28T02:24:52;1.00;99.90
17381;DHT22;8808;52.478;13.378;2023-02-28T02:27:28;1.10;99.90
17381;DHT22;8808;52.478;13.378;2023-02-28T02:33:45;0.80;99.90
17381;DHT22;8808;52.478;13.378;2023-02-28T02:36:22;0.80;99.90
17381;DHT22;8808;52.478;13.378;2023-02-28T02:38:52;0.70;99.90
17381;DHT22;8808;52.478;13.378;2023-02-28T02:41:25;0.70;99.90
17381;DHT22;8808;52.478;13.378;2023-02-28T02:43:58;0.70;99.90
17381;DHT22;8808;52.478;13.378;2023-02-28T02:46:31;0.70;99.90
17381;DHT22;8808;52.478;13.378;2023-02-28T02:49:00;0.60;99.90
17381;DHT22;8808;52.478;13.378;2023-02-28T02:51:33;0.60;99.90
17381;DHT22;8808;52.478;13.378;2023-02-28T02:54:03;0.50;99.90
17381;DHT22;8808;52.478;13.378;2023-02-28T02:56:33;0.60;99.90
17381;DHT22;8808;52.478;13.378;2023-02-28T02:59:03;0.60;99.90
17381;DHT22;8808;52.478;13.378;2023-02-28T03:01:32;0.60;99.90
17381;DHT22;8808;52.478;13.378;2023-02-28T03:04:04;0.50;99.90
17381;DHT22;8808;52.478;13.378;2023-02-28T03:06:33;0.40;99.90
17381;DHT22;8808;52.478;13.378;2023-02-28T03:09:01;0.40;99.90
17381;DHT22;8808;52.478;13.378;2023-02-28T03:11:28;0.50;99.90
17381;DHT22;8808;52.478;13.378;2023-02-28T03:14:14;0.60;99.90
17381;DHT22;8808;52.478;13.378;2023-02-28T03:17:00;0.40;99.90
17381;DHT22;8808;52.478;13.378;2023-02-28T03:19:47;0.40;99.90
17381;DHT22;8808;52.478;13.378;2023-02-28T03:22:29;0.40;99.90
17381;DHT22;8808;52.478;13.378;2023-02-28T03:25:04;0.40;99.90
17381;DHT22;8808;52.478;13.378;2023-02-28T03:27:38;0.40;99.90
17381;DHT22;8808;52.478;13.378;2023-02-28T03:30:11;0.30;99.90
17381;DHT22;8808;52.478;13.378;2023-02-28T03:32:47;0.20;99.90
17381;DHT22;8808;52.478;13.378;2023-02-28T03:35:19;0.30;99.90
17381;DHT22;8808;52.478;13.378;2023-02-28T03:37:53;0.30;99.90
17381;DHT22;8808;52.478;13.378;2023-02-28T03:40:24;0.20;99.90
17381;DHT22;8808;52.478;13.378;2023-02-28T03:42:57;0.40;99.90
17381;DHT22;8808;52.478;13.378;2023-02-28T03:45:26;0.30;99.90
17381;DHT22;8808;52.478;13.378;2023-02-28T03:47:58;0.40;99.90
17381;DHT22;8808;52.478;13.378;2023-02-28T03:50:29;0.30;99.90
17381;DHT22;8808;52.478;13.378;2023-02-28T03:53:04;0.20;99.90
17381;DHT22;8808;52.478;13.378;2023-02-28T03:55:39;0.10;99.90
17381;DHT22;8808;52.478;13.378;2023-02-28T03:58:14;0.20;99.90
17381;DHT22;8808;52.478;13.378;2023-02-28T04:00:46;0.10;99.90
17381;DHT22;8808;52.478;13.378;2023-02-28T04:03:14;0.10;99.90
17381;DHT22;8808;52.478;13.378;2023-02-28T04:05:50;0.10;99.90
17381;DHT22;8808;52.478;13.378;2023-02-28T04:08:19;0.10;99.90
17381;DHT22;8808;52.478;13.378;2023-02-28T04:10:50;0.10;99.90
17381;DHT22;8808;52.478;13.378;2023-02-28T04:13:18;0.00;99.90
17381;DHT22;8808;52.478;13.378;2023-02-28T04:15:46;0.10;99.90
17381;DHT22;8808;52.478;13.378;2023-02-28T04:18:13;0.00;99.90
17381;DHT22;8808;52.478;13.378;2023-02-28T04:20:40;0.00;99.90
17381;DHT22;8808;52.478;13.378;2023-02-28T04:23:07;0.20;99.90
17381;DHT22;8808;52.478;13.378;2023-02-28T04:25:35;0.10;99.90
17381;DHT22;8808;52.478;13.378;2023-02-28T04:28:02;0.10;99.90
17381;DHT22;8808;52.478;13.378;2023-02-28T04:30:29;0.10;99.90
17381;DHT22;8808;52.478;13.378;2023-02-28T04:32:58;0.00;99.90
17381;DHT22;8808;52.478;13.378;2023-02-28T04:35:25;0.00;99.90
17381;DHT22;8808;52.478;13.378;2023-02-28T04:37:52;0.10;99.90
17381;DHT22;8808;52.478;13.378;2023-02-28T04:40:19;0.10;99.90
17381;DHT22;8808;52.478;13.378;2023-02-28T04:42:47;-0.10;99.90
17381;DHT22;8808;52.478;13.378;2023-02-28T04:45:14;-0.10;99.90
17381;DHT22;8808;52.478;13.378;2023-02-28T04:47:41;-0.30;99.90
17381;DHT22;8808;52.478;13.378;2023-02-28T04:50:09;-0.30;99.90
17381;DHT22;8808;52.478;13.378;2023-02-28T04:52:36;-0.30;99.90
17381;DHT22;8808;52.478;13.378;2023-02-28T04:55:04;-0.30;99.90
17381;DHT22;8808;52.478;13.378;2023-02-28T04:57:31;-0.30;99.90
17381;DHT22;8808;52.478;13.378;2023-02-28T04:59:59;-0.40;99.90
17381;DHT22;8808;52.478;13.378;2023-02-28T05:02:26;-0.40;99.90
17381;DHT22;8808;52.478;13.378;2023-02-28T05:04:53;-0.40;99.90
17381;DHT22;8808;52.478;13.378;2023-02-28T05:07:20;-0.50;99.90
17381;DHT22;8808;52.478;13.378;2023-02-28T05:09:46;-0.40;99.90
17381;DHT22;8808;52.478;13.378;2023-02-28T05:12:13;-0.50;99.90
17381;DHT22;8808;52.478;13.378;2023-02-28T05:14:41;-0.40;99.90
17381;DHT22;8808;52.478;13.378;2023-02-28T05:17:11;-0.40;99.90
17381;DHT22;8808;52.478;13.378;2023-02-28T05:19:38;-0.50;99.90
17381;DHT22;8808;52.478;13.378;2023-02-28T05:22:11;-0.50;99.90
17381;DHT22;8808;52.478;13.378;2023-02-28T05:24:39;-0.60;99.90
17381;DHT22;8808;52.478;13.378;2023-02-28T05:27:08;-0.40;99.90
17381;DHT22;8808;52.478;13.378;2023-02-28T05:29:35;-0.50;99.90
17381;DHT22;8808;52.478;13.378;2023-02-28T05:32:08;-0.50;99.90
17381;DHT22;8808;52.478;13.378;2023-02-28T05:34:37;-0.50;99.90
17381;DHT22;8808;52.478;13.378;2023-02-28T05:37:04;-0.60;99.90
17381;DHT22;8808;52.478;13.378;2023-02-28T05:39:32;-0.60;99.90
17381;DHT22;8808;52.478;13.378;2023-02-28T05:41:59;-0.60;99.90
17381;DHT22;8808;52.478;13.378;2023-02-28T05:44:26;-0.60;99.90
17381;DHT22;8808;52.478;13.378;2023-02-28T05:46:53;-0.50;99.90
17381;DHT22;8808;52.478;13.378;2023-02-28T05:49:20;-0.50;99.90
17381;DHT22;8808;52.478;13.378;2023-02-28T05:51:48;-0.50;99.90
17381;DHT22;8808;52.478;13.378;2023-02-28T05:54:15;-0.50;99.90
17381;DHT22;8808;52.478;13.378;2023-02-28T05:56:42;-0.50;99.90
17381;DHT22;8808;52.478;13.378;2023-02-28T05:59:11;-0.60;99.90
17381;DHT22;8808;52.478;13.378;2023-02-28T06:01:40;-0.60;99.90
17381;DHT22;8808;52.478;13.378;2023-02-28T06:04:09;-0.60;99.90
17381;DHT22;8808;52.478;13.378;2023-02-28T06:06:36;-0.50;99.90
17381;DHT22;8808;52.478;13.378;2023-02-28T06:09:06;-0.50;99.90
17381;DHT22;8808;52.478;13.378;2023-02-28T06:11:33;-0.50;99.90
17381;DHT22;8808;52.478;13.378;2023-02-28T06:14:00;-0.60;99.90
17381;DHT22;8808;52.478;13.378;2023-02-28T06:16:28;-0.50;99.90
17381;DHT22;8808;52.478;13.378;2023-02-28T06:18:57;-0.50;99.90
17381;DHT22;8808;52.478;13.378;2023-02-28T06:21:25;-0.50;99.90
17381;DHT22;8808;52.478;13.378;2023-02-28T06:23:54;-0.50;99.90
17381;DHT22;8808;52.478;13.378;2023-02-28T06:26:23;-0.40;99.90
17381;DHT22;8808;52.478;13.378;2023-02-28T06:28:50;-0.30;99.90
17381;DHT22;8808;52.478;13.378;2023-02-28T06:31:18;-0.30;99.90
17381;DHT22;8808;52.478;13.378;2023-02-28T06:33:46;-0.30;99.90
17381;DHT22;8808;52.478;13.378;2023-02-28T06:36:14;-0.30;99.90
17381;DHT22;8808;52.478;13.378;2023-02-28T06:38:42;-0.30;99.90
17381;DHT22;8808;52.478;13.378;2023-02-28T06:41:09;-0.30;99.90
17381;DHT22;8808;52.478;13.378;2023-02-28T06:43:40;-0.20;99.90
17381;DHT22;8808;52.478;13.378;2023-02-28T06:46:10;0.00;99.90
17381;DHT22;8808;52.478;13.378;2023-02-28T06:48:37;0.10;99.90
17381;DHT22;8808;52.478;13.378;2023-02-28T06:51:06;0.30;99.90
17381;DHT22;8808;52.478;13.378;2023-02-28T06:53:34;0.70;99.90
17381;DHT22;8808;52.478;13.378;2023-02-28T06:56:04;0.60;99.90
17381;DHT22;8808;52.478;13.378;2023-02-28T06:58:32;0.50;99.90
17381;DHT22;8808;52.478;13.378;2023-02-28T07:01:00;0.50;99.90
17381;DHT22;8808;52.478;13.378;2023-02-28T07:03:27;1.00;99.90
17381;DHT22;8808;52.478;13.378;2023-02-28T07:05:54;1.10;99.90
17381;DHT22;8808;52.478;13.378;2023-02-28T07:08:22;0.90;99.90
17381;DHT22;8808;52.478;13.378;2023-02-28T07:10:51;1.20;99.90
17381;DHT22;8808;52.478;13.378;2023-02-28T07:13:18;1.40;99.90
17381;DHT22;8808;52.478;13.378;2023-02-28T07:15:57;1.50;99.90
17381;DHT22;8808;52.478;13.378;2023-02-28T07:18:26;1.70;99.90
17381;DHT22;8808;52.478;13.378;2023-02-28T07:20:53;1.80;99.90
17381;DHT22;8808;52.478;13.378;2023-02-28T07:23:21;1.80;99.90
17381;DHT22;8808;52.478;13.378;2023-02-28T07:25:49;1.90;99.90
17381;DHT22;8808;52.478;13.378;2023-02-28T07:28:16;2.00;99.90
17381;DHT22;8808;52.478;13.378;2023-02-28T07:30:43;2.00;99.90
17381;DHT22;8808;52.478;13.378;2023-02-28T07:33:10;2.20;99.90
17381;DHT22;8808;52.478;13.378;2023-02-28T07:35:38;2.40;99.90
17381;DHT22;8808;52.478;13.378;2023-02-28T07:38:05;2.40;99.90
17381;DHT22;8808;52.478;13.378;2023-02-28T07:40:34;2.40;99.90
17381;DHT22;8808;52.478;13.378;2023-02-28T07:43:02;2.40;99.90
17381;DHT22;8808;52.478;13.378;2023-02-28T07:45:30;2.40;99.90
17381;DHT22;8808;52.478;13.378;2023-02-28T07:47:58;2.50;99.90
17381;DHT22;8808;52.478;13.378;2023-02-28T07:50:24;2.60;99.90
17381;DHT22;8808;52.478;13.378;2023-02-28T07:52:54;2.80;99.90
17381;DHT22;8808;52.478;13.378;2023-02-28T07:55:21;2.80;99.90
17381;DHT22;8808;52.478;13.378;2023-02-28T07:57:48;2.90;99.90
17381;DHT22;8808;52.478;13.378;2023-02-28T08:02:42;3.20;99.90
17381;DHT22;8808;52.478;13.378;2023-02-28T08:05:09;3.30;99.90
17381;DHT22;8808;52.478;13.378;2023-02-28T08:07:36;3.60;99.90
17381;DHT22;8808;52.478;13.378;2023-02-28T08:10:06;3.80;99.90
17381;DHT22;8808;52.478;13.378;2023-02-28T08:12:35;3.90;99.90
17381;DHT22;8808;52.478;13.378;2023-02-28T08:15:03;4.10;99.90
17381;DHT22;8808;52.478;13.378;2023-02-28T08:17:30;4.20;99.80
17381;DHT22;8808;52.478;13.378;2023-02-28T08:19:57;4.40;98.70
17381;DHT22;8808;52.478;13.378;2023-02-28T08:22:24;4.60;97.90
17381;DHT22;8808;52.478;13.378;2023-02-28T08:24:51;4.60;96.70
17381;DHT22;8808;52.478;13.378;2023-02-28T08:27:19;4.80;97.20
17381;DHT22;8808;52.478;13.378;2023-02-28T08:29:46;4.60;96.50
17381;DHT22;8808;52.478;13.378;2023-02-28T08:32:13;4.70;96.10
17381;DHT22;8808;52.478;13.378;2023-02-28T08:34:40;4.80;96.40
17381;DHT22;8808;52.478;13.378;2023-02-28T08:37:07;5.10;96.20
17381;DHT22;8808;52.478;13.378;2023-02-28T08:39:34;5.30;95.40
17381;DHT22;8808;52.478;13.378;2023-02-28T08:42:01;5.30;93.30
17381;DHT22;8808;52.478;13.378;2023-02-28T08:44:30;5.20;92.40
17381;DHT22;8808;52.478;13.378;2023-02-28T08:46:57;5.10;92.10
17381;DHT22;8808;52.478;13.378;2023-02-28T08:49:23;5.50;91.60
17381;DHT22;8808;52.478;13.378;2023-02-28T08:51:50;5.50;91.10
17381;DHT22;8808;52.478;13.378;2023-02-28T08:54:18;5.60;91.10
17381;DHT22;8808;52.478;13.378;2023-02-28T08:56:45;5.70;91.00
17381;DHT22;8808;52.478;13.378;2023-02-28T08:59:13;5.50;90.00
17381;DHT22;8808;52.478;13.378;2023-02-28T09:01:41;5.20;87.10
17381;DHT22;8808;52.478;13.378;2023-02-28T09:04:09;5.10;88.00
17381;DHT22;8808;52.478;13.378;2023-02-28T09:06:37;5.50;88.70
17381;DHT22;8808;52.478;13.378;2023-02-28T09:09:04;5.50;89.50
17381;DHT22;8808;52.478;13.378;2023-02-28T09:11:33;5.50;85.80
17381;DHT22;8808;52.478;13.378;2023-02-28T09:14:01;6.00;90.20
17381;DHT22;8808;52.478;13.378;2023-02-28T09:16:29;5.40;84.60
17381;DHT22;8808;52.478;13.378;2023-02-28T09:18:58;5.40;86.10
17381;DHT22;8808;52.478;13.378;2023-02-28T09:21:25;5.60;83.10
17381;DHT22;8808;52.478;13.378;2023-02-28T09:23:52;5.30;84.10
17381;DHT22;8808;52.478;13.378;2023-02-28T09:26:21;5.40;84.90
17381;DHT22;8808;52.478;13.378;2023-02-28T09:28:49;5.60;86.70
17381;DHT22;8808;52.478;13.378;2023-02-28T09:31:18;5.50;85.30
17381;DHT22;8808;52.478;13.378;2023-02-28T09:33:47;5.50;86.60
17381;DHT22;8808;52.478;13.378;2023-02-28T09:36:15;5.60;85.80
17381;DHT22;8808;52.478;13.378;2023-02-28T09:38:43;5.30;86.00
17381;DHT22;8808;52.478;13.378;2023-02-28T09:41:13;5.50;84.70
17381;DHT22;8808;52.478;13.378;2023-02-28T09:43:46;5.40;84.70
17381;DHT22;8808;52.478;13.378;2023-02-28T09:46:25;5.50;84.50
17381;DHT22;8808;52.478;13.378;2023-02-28T09:48:53;5.50;84.40
17381;DHT22;8808;52.478;13.378;2023-02-28T09:51:37;5.60;86.00
17381;DHT22;8808;52.478;13.378;2023-02-28T09:54:11;5.80;86.00
17381;DHT22;8808;52.478;13.378;2023-02-28T09:56:46;5.40;84.20
17381;DHT22;8808;52.478;13.378;2023-02-28T09:59:35;5.70;86.20
17381;DHT22;8808;52.478;13.378;2023-02-28T10:02:13;5.60;83.70
17381;DHT22;8808;52.478;13.378;2023-02-28T10:04:47;5.70;83.40
17381;DHT22;8808;52.478;13.378;2023-02-28T10:07:37;6.10;87.00
17381;DHT22;8808;52.478;13.378;2023-02-28T10:10:20;5.80;81.20
17381;DHT22;8808;52.478;13.378;2023-02-28T10:12:51;5.50;83.80
17381;DHT22;8808;52.478;13.378;2023-02-28T10:15:22;5.70;84.10
17381;DHT22;8808;52.478;13.378;2023-02-28T10:17:54;5.90;81.10
17381;DHT22;8808;52.478;13.378;2023-02-28T10:20:24;6.00;84.30
17381;DHT22;8808;52.478;13.378;2023-02-28T10:23:01;6.40;82.00
17381;DHT22;8808;52.478;13.378;2023-02-28T10:25:35;6.60;82.50
17381;DHT22;8808;52.478;13.378;2023-02-28T10:28:09;6.80;91.70
17381;DHT22;8808;52.478;13.378;2023-02-28T10:30:41;7.10;92.00
17381;DHT22;8808;52.478;13.378;2023-02-28T10:33:17;7.60;91.60
17381;DHT22;8808;52.478;13.378;2023-02-28T10:35:46;7.00;90.40
17381;DHT22;8808;52.478;13.378;2023-02-28T10:38:18;7.60;90.30
17381;DHT22;8808;52.478;13.378;2023-02-28T10:40:46;7.70;90.30
17381;DHT22;8808;52.478;13.378;2023-02-28T10:43:31;7.80;89.20
17381;DHT22;8808;52.478;13.378;2023-02-28T10:46:01;7.80;90.00
17381;DHT22;8808;52.478;13.378;2023-02-28T10:48:37;7.50;83.00
17381;DHT22;8808;52.478;13.378;2023-02-28T10:51:07;7.40;83.60
17381;DHT22;8808;52.478;13.378;2023-02-28T10:53:39;7.70;79.50
17381;DHT22;8808;52.478;13.378;2023-02-28T10:56:16;7.10;76.60
17381;DHT22;8808;52.478;13.378;2023-02-28T10:58:53;7.10;81.50
17381;DHT22;8808;52.478;13.378;2023-02-28T11:01:22;7.10;79.30
17381;DHT22;8808;52.478;13.378;2023-02-28T11:03:49;7.10;80.30
17381;DHT22;8808;52.478;13.378;2023-02-28T11:06:19;6.80;81.00
17381;DHT22;8808;52.478;13.378;2023-02-28T11:08:50;6.60;79.90
17381;DHT22;8808;52.478;13.378;2023-02-28T11:11:19;6.90;80.50
17381;DHT22;8808;52.478;13.378;2023-02-28T11:13:49;7.00;77.90
17381;DHT22;8808;52.478;13.378;2023-02-28T11:16:16;7.10;78.40
17381;DHT22;8808;52.478;13.378;2023-02-28T11:18:48;7.20;84.80
17381;DHT22;8808;52.478;13.378;2023-02-28T11:21:19;6.90;77.70
17381;DHT22;8808;52.478;13.378;2023-02-28T11:23:49;7.20;78.40
17381;DHT22;8808;52.478;13.378;2023-02-28T11:26:36;7.70;78.00
17381;DHT22;8808;52.478;13.378;2023-02-28T11:29:11;7.40;75.90
17381;DHT22;8808;52.478;13.378;2023-02-28T11:31:38;7.60;76.80
17381;DHT22;8808;52.478;13.378;2023-02-28T11:34:24;7.30;77.90
17381;DHT22;8808;52.478;13.378;2023-02-28T11:36:53;7.20;77.30
17381;DHT22;8808;52.478;13.378;2023-02-28T11:39:23;7.40;74.50
17381;DHT22;8808;52.478;13.378;2023-02-28T11:42:04;7.60;74.90
17381;DHT22;8808;52.478;13.378;2023-02-28T11:44:48;7.90;73.60
17381;DHT22;8808;52.478;13.378;2023-02-28T11:47:28;7.80;74.90
17381;DHT22;8808;52.478;13.378;2023-02-28T11:50:08;7.80;75.80
17381;DHT22;8808;52.478;13.378;2023-02-28T11:52:45;7.70;76.90
17381;DHT22;8808;52.478;13.378;2023-02-28T11:55:20;7.90;75.80
17381;DHT22;8808;52.478;13.378;2023-02-28T12:00:57;7.60;75.00
17381;DHT22;8808;52.478;13.378;2023-02-28T12:03:37;7.70;75.20
17381;DHT22;8808;52.478;13.378;2023-02-28T12:06:15;7.70;74.80
17381;DHT22;8808;52.478;13.378;2023-02-28T12:08:52;7.60;75.70
17381;DHT22;8808;52.478;13.378;2023-02-28T12:11:33;7.10;74.80
17381;DHT22;8808;52.478;13.378;2023-02-28T12:14:21;7.80;76.90
17381;DHT22;8808;52.478;13.378;2023-02-28T12:17:01;7.60;75.00
17381;DHT22;8808;52.478;13.378;2023-02-28T12:19:41;7.90;76.40
17381;DHT22;8808;52.478;13.378;2023-02-28T12:22:19;8.40;79.30
17381;DHT22;8808;52.478;13.378;2023-02-28T12:25:24;8.00;77.10
17381;DHT22;8808;52.478;13.378;2023-02-28T12:28:00;7.90;74.90
17381;DHT22;8808;52.478;13.378;2023-02-28T12:30:30;8.50;77.40
17381;DHT22;8808;52.478;13.378;2023-02-28T12:33:04;8.40;76.50
17381;DHT22;8808;52.478;13.378;2023-02-28T12:35:35;8.10;78.00
17381;DHT22;8808;52.478;13.378;2023-02-28T12:38:08;8.40;77.80
17381;DHT22;8808;52.478;13.378;2023-02-28T12:40:43;8.40;77.20
17381;DHT22;8808;52.478;13.378;2023-02-28T12:43:13;8.40;77.20
17381;DHT22;8808;52.478;13.378;2023-02-28T12:45:44;8.10;76.50
17381;DHT22;8808;52.478;13.378;2023-02-28T12:48:18;8.40;78.60
17381;DHT22;8808;52.478;13.378;2023-02-28T12:50:47;7.60;75.00
17381;DHT22;8808;52.478;13.378;2023-02-28T12:53:21;7.40;76.10
17381;DHT22;8808;52.478;13.378;2023-02-28T12:55:52;7.30;75.30
17381;DHT22;8808;52.478;13.378;2023-02-28T12:58:29;7.50;78.90
17381;DHT22;8808;52.478;13.378;2023-02-28T13:04:38;7.10;76.70
17381;DHT22;8808;52.478;13.378;2023-02-28T13:07:30;8.20;77.70
17381;DHT22;8808;52.478;13.378;2023-02-28T13:10:04;9.00;76.10
17381;DHT22;8808;52.478;13.378;2023-02-28T13:12:33;8.70;75.20
17381;DHT22;8808;52.478;13.378;2023-02-28T13:15:06;8.30;74.40
17381;DHT22;8808;52.478;13.378;2023-02-28T13:17:39;8.20;75.80
17381;DHT22;8808;52.478;13.378;2023-02-28T13:20:16;8.00;73.90
17381;DHT22;8808;52.478;13.378;2023-02-28T13:22:44;7.80;73.40
17381;DHT22;8808;52.478;13.378;2023-02-28T13:35:11;7.70;76.00
17381;DHT22;8808;52.478;13.378;2023-02-28T13:37:42;7.20;75.00
17381;DHT22;8808;52.478;13.378;2023-02-28T13:40:31;7.20;76.40
17381;DHT22;8808;52.478;13.378;2023-02-28T13:43:03;7.20;76.30
17381;DHT22;8808;52.478;13.378;2023-02-28T13:45:30;7.30;77.50
17381;DHT22;8808;52.478;13.378;2023-02-28T13:48:04;7.00;75.60
17381;DHT22;8808;52.478;13.378;2023-02-28T13:50:34;7.20;75.90
17381;DHT22;8808;52.478;13.378;2023-02-28T13:53:32;7.10;73.60
17381;DHT22;8808;52.478;13.378;2023-02-28T13:56:07;6.90;76.40
17381;DHT22;8808;52.478;13.378;2023-02-28T13:58:46;7.10;74.80
17381;DHT22;8808;52.478;13.378;2023-02-28T14:01:27;6.80;74.60
17381;DHT22;8808;52.478;13.378;2023-02-28T14:04:11;6.60;75.60
17381;DHT22;8808;52.478;13.378;2023-02-28T14:06:47;6.80;76.60
17381;DHT22;8808;52.478;13.378;2023-02-28T14:09:24;7.00;74.30
17381;DHT22;8808;52.478;13.378;2023-02-28T14:11:52;7.10;75.60
17381;DHT22;8808;52.478;13.378;2023-02-28T14:14:53;7.00;74.70
17381;DHT22;8808;52.478;13.378;2023-02-28T14:17:21;7.10;76.70
17381;DHT22;8808;52.478;13.378;2023-02-28T14:19:48;7.20;78.00
17381;DHT22;8808;52.478;13.378;2023-02-28T14:22:43;7.10;75.70
17381;DHT22;8808;52.478;13.378;2023-02-28T14:25:22;7.20;75.80
17381;DHT22;8808;52.478;13.378;2023-02-28T14:27:55;6.90;75.30
17381;DHT22;8808;52.478;13.378;2023-02-28T14:31:01;6.90;76.60
17381;DHT22;8808;52.478;13.378;2023-02-28T14:33:46;6.90;76.00
17381;DHT22;8808;52.478;13.378;2023-02-28T14:36:22;7.20;77.50
17381;DHT22;8808;52.478;13.378;2023-02-28T14:38:52;6.80;75.20
17381;DHT22;8808;52.478;13.378;2023-02-28T14:41:30;6.70;76.70
17381;DHT22;8808;52.478;13.378;2023-02-28T14:44:01;6.90;77.10
17381;DHT22;8808;52.478;13.378;2023-02-28T14:46:35;7.00;76.70
17381;DHT22;8808;52.478;13.378;2023-02-28T14:49:04;7.00;76.70
17381;DHT22;8808;52.478;13.378;2023-02-28T14:51:32;6.50;78.30
17381;DHT22;8808;52.478;13.378;2023-02-28T14:54:01;6.80;77.30
17381;DHT22;8808;52.478;13.378;2023-02-28T14:56:37;6.80;76.30
17381;DHT22;8808;52.478;13.378;2023-02-28T14:59:18;6.70;79.00
17381;DHT22;8808;52.478;13.378;2023-02-28T15:01:49;6.60;76.50
17381;DHT22;8808;52.478;13.378;2023-02-28T15:04:25;6.70;77.60
17381;DHT22;8808;52.478;13.378;2023-02-28T15:07:10;6.70;77.80
17381;DHT22;8808;52.478;13.378;2023-02-28T15:09:37;6.80;76.60
17381;DHT22;8808;52.478;13.378;2023-02-28T15:12:06;6.80;77.70
17381;DHT22;8808;52.478;13.378;2023-02-28T15:14:43;6.60;76.30
17381;DHT22;8808;52.478;13.378;2023-02-28T15:17:19;6.30;78.40
17381;DHT22;8808;52.478;13.378;2023-02-28T15:19:51;6.30;79.40
17381;DHT22;8808;52.478;13.378;2023-02-28T15:22:25;6.50;77.70
17381;DHT22;8808;52.478;13.378;2023-02-28T15:24:55;6.50;78.20
17381;DHT22;8808;52.478;13.378;2023-02-28T15:27:26;6.40;78.30
17381;DHT22;8808;52.478;13.378;2023-02-28T15:29:56;6.20;78.40
17381;DHT22;8808;52.478;13.378;2023-02-28T15:32:28;6.40;79.60
17381;DHT22;8808;52.478;13.378;2023-02-28T15:34:56;6.40;77.50
17381;DHT22;8808;52.478;13.378;2023-02-28T15:37:38;6.30;77.60
17381;DHT22;8808;52.478;13.378;2023-02-28T15:40:12;6.10;77.40
17381;DHT22;8808;52.478;13.378;2023-02-28T15:42:41;6.30;79.10
17381;DHT22;8808;52.478;13.378;2023-02-28T15:45:27;6.20;78.00
17381;DHT22;8808;52.478;13.378;2023-02-28T15:47:54;6.30;77.30
17381;DHT22;8808;52.478;13.378;2023-02-28T15:50:22;6.20;78.10
17381;DHT22;8808;52.478;13.378;2023-02-28T15:52:49;6.10;77.70
17381;DHT22;8808;52.478;13.378;2023-02-28T15:55:19;6.10;77.90
17381;DHT22;8808;52.478;13.378;2023-02-28T15:57:50;6.00;76.70
17381;DHT22;8808;52.478;13.378;2023-02-28T16:00:20;6.10;77.70
17381;DHT22;8808;52.478;13.378;2023-02-28T16:02:48;5.90;77.80
17381;DHT22;8808;52.478;13.378;2023-02-28T16:05:20;5.70;80.00
17381;DHT22;8808;52.478;13.378;2023-02-28T16:07:53;5.70;78.70
17381;DHT22;8808;52.478;13.378;2023-02-28T16:10:21;5.70;80.10
17381;DHT22;8808;52.478;13.378;2023-02-28T16:12:53;5.80;80.90
17381;DHT22;8808;52.478;13.378;2023-02-28T16:15:22;5.70;78.80
17381;DHT22;8808;52.478;13.378;2023-02-28T16:17:50;5.70;78.70
17381;DHT22;8808;52.478;13.378;2023-02-28T16:20:19;5.60;80.50
17381;DHT22;8808;52.478;13.378;2023-02-28T16:22:47;5.70;79.60
17381;DHT22;8808;52.478;13.378;2023-02-28T16:25:14;5.70;80.90
17381;DHT22;8808;52.478;13.378;2023-02-28T16:27:42;5.60;79.30
17381;DHT22;8808;52.478;13.378;2023-02-28T16:30:18;5.50;80.50
17381;DHT22;8808;52.478;13.378;2023-02-28T16:32:45;5.50;80.90
17381;DHT22;8808;52.478;13.378;2023-02-28T16:35:12;5.40;81.80
17381;DHT22;8808;52.478;13.378;2023-02-28T16:37:39;5.40;81.30